Time;durP1;ratioP1;P1;durP2;ratioP2;P2;SDS_P1;SDS_P2;PMS_P1;PMS_P2;Temp;Humidity;BMP_temperature;BMP_pressure;BME280_temperature;BME280_humidity;BME280_pressure;Samples;Min_cycle;Max_cycle;Signal;HPM_P1;HPM_P2
2022/07/07 00:01:34;;;;;;;3.53;3.23;;;;;;;18.21;100.00;96779.78;5035836;28;20269;-77
2022/07/07 00:04:02;;;;;;;3.93;3.47;;;;;;;18.19;100.00;96771.06;5044683;28;20201;-77
2022/07/07 00:06:30;;;;;;;5.47;3.60;;;;;;;18.28;100.00;96783.09;5036234;28;20273;-77
2022/07/07 00:08:58;;;;;;;4.23;3.47;;;;;;;18.24;100.00;96778.44;5038050;28;20203;-77
2022/07/07 00:11:26;;;;;;;4.67;3.43;;;;;;;18.24;100.00;96767.50;5037354;28;20301;-77
2022/07/07 00:13:53;;;;;;;8.80;3.57;;;;;;;18.30;100.00;96774.63;5034422;28;20231;-77
2022/07/07 00:16:21;;;;;;;6.30;3.30;;;;;;;18.34;100.00;96776.56;5054648;28;20217;-77
2022/07/07 00:18:48;;;;;;;5.93;3.70;;;;;;;18.34;100.00;96775.72;5041766;28;20292;-77
2022/07/07 00:21:17;;;;;;;4.00;3.60;;;;;;;18.25;100.00;96774.59;5030625;28;20203;-77
2022/07/07 00:23:44;;;;;;;6.63;3.87;;;;;;;18.22;100.00;96772.41;5043465;28;20215;-77
2022/07/07 00:26:11;;;;;;;5.03;3.30;;;;;;;18.11;100.00;96772.41;5025344;28;20238;-77
2022/07/07 00:28:38;;;;;;;4.70;3.60;;;;;;;17.93;100.00;96770.13;5033915;28;20214;-77
2022/07/07 00:31:05;;;;;;;4.97;3.70;;;;;;;17.85;100.00;96773.38;5041254;28;20268;-77
2022/07/07 00:33:33;;;;;;;3.77;3.47;;;;;;;17.80;100.00;96769.78;5038429;28;20226;-77
2022/07/07 00:36:00;;;;;;;3.77;3.47;;;;;;;17.76;100.00;96769.50;5039579;28;20284;-77
2022/07/07 00:38:28;;;;;;;4.13;3.73;;;;;;;17.67;100.00;96771.09;5043800;28;20217;-77
2022/07/07 00:40:55;;;;;;;6.03;3.67;;;;;;;17.64;100.00;96779.81;5035749;28;20244;-77
2022/07/07 00:43:22;;;;;;;5.50;3.70;;;;;;;17.65;100.00;96773.25;5037822;28;20214;-77
2022/07/07 00:45:51;;;;;;;5.07;3.60;;;;;;;17.70;100.00;96771.34;5032238;28;20210;-77
2022/07/07 00:48:20;;;;;;;4.83;3.70;;;;;;;17.68;100.00;96772.72;5033891;28;20210;-77
2022/07/07 00:50:48;;;;;;;6.67;3.57;;;;;;;17.57;100.00;96771.81;5033987;28;20276;-77
2022/07/07 00:53:16;;;;;;;3.80;3.50;;;;;;;17.53;100.00;96773.41;5038309;28;20210;-77
2022/07/07 00:55:45;;;;;;;3.93;3.57;;;;;;;17.56;100.00;96770.16;5034749;28;20250;-77
2022/07/07 00:58:12;;;;;;;7.40;3.70;;;;;;;17.43;100.00;96776.09;5031429;28;20202;-77
2022/07/07 01:00:41;;;;;;;4.07;3.67;;;;;;;17.23;100.00;96779.50;5030679;28;20206;-77
2022/07/07 01:03:09;;;;;;;6.70;3.97;;;;;;;17.15;100.00;96779.16;5046864;28;20232;-76
2022/07/07 01:05:37;;;;;;;6.47;3.90;;;;;;;17.16;100.00;96772.63;5037970;28;20317;-77
2022/07/07 01:08:08;;;;;;;4.07;3.67;;;;;;;17.25;100.00;96784.72;5041319;28;20203;-76
2022/07/07 01:10:36;;;;;;;6.63;3.63;;;;;;;17.32;100.00;96788.03;5031437;28;20217;-76
2022/07/07 01:13:05;;;;;;;4.17;3.43;;;;;;;17.39;100.00;96786.72;5037771;28;20197;-77
2022/07/07 01:15:32;;;;;;;3.90;3.60;;;;;;;17.48;100.00;96794.41;5025261;28;20317;-77
2022/07/07 01:17:59;;;;;;;7.50;3.57;;;;;;;17.61;100.00;96799.41;5037699;28;20217;-77
2022/07/07 01:20:27;;;;;;;6.03;3.50;;;;;;;17.57;100.00;96799.13;5037079;28;20264;-77
2022/07/07 01:22:56;;;;;;;5.27;3.70;;;;;;;17.56;100.00;96797.47;5040939;28;20233;-76
2022/07/07 01:25:24;;;;;;;3.83;3.43;;;;;;;17.55;100.00;96795.00;5034244;28;20218;-76
2022/07/07 01:27:52;;;;;;;6.57;3.63;;;;;;;17.62;100.00;96790.97;5030547;28;20229;-77
2022/07/07 01:30:20;;;;;;;4.77;3.20;;;;;;;17.65;100.00;96795.09;5031117;28;20202;-76
2022/07/07 01:32:47;;;;;;;6.20;3.67;;;;;;;17.68;100.00;96789.94;5034816;28;20244;-77
2022/07/07 01:35:14;;;;;;;8.93;3.57;;;;;;;17.76;100.00;96791.34;5029104;28;20368;-77
2022/07/07 01:37:41;;;;;;;4.37;3.40;;;;;;;17.80;100.00;96797.91;5030689;28;20214;-75
2022/07/07 01:40:10;;;;;;;4.83;3.60;;;;;;;17.74;100.00;96788.06;5030269;28;20210;-76
2022/07/07 01:42:37;;;;;;;4.23;3.47;;;;;;;17.76;100.00;96791.34;5033449;28;20210;-76
2022/07/07 01:45:05;;;;;;;5.47;3.87;;;;;;;17.87;100.00;96790.28;5047803;28;20242;-76
2022/07/07 01:47:33;;;;;;;4.67;3.43;;;;;;;17.79;100.00;96788.06;5037990;28;20210;-77
2022/07/07 01:50:00;;;;;;;4.17;3.77;;;;;;;17.75;100.00;96790.53;5041806;28;20210;-76
2022/07/07 01:52:27;;;;;;;5.47;3.43;;;;;;;17.70;100.00;96786.91;5045123;28;20215;-77
2022/07/07 01:54:54;;;;;;;5.37;3.70;;;;;;;17.75;100.00;96795.16;5030146;28;20300;-77
2022/07/07 01:57:22;;;;;;;3.93;3.50;;;;;;;17.85;100.00;96795.22;5037295;28;20226;-77
2022/07/07 01:59:49;;;;;;;4.27;3.73;;;;;;;17.88;100.00;96789.22;5033215;28;20213;-77
2022/07/07 02:02:16;;;;;;;4.57;3.53;;;;;;;17.87;100.00;96793.03;5041519;28;20210;-76
2022/07/07 02:04:43;;;;;;;3.93;3.60;;;;;;;17.80;100.00;96786.97;5039207;28;20210;-77
2022/07/07 02:07:11;;;;;;;8.30;3.67;;;;;;;17.77;100.00;96782.06;5032074;28;20199;-77
2022/07/07 02:09:38;;;;;;;4.33;3.90;;;;;;;17.83;100.00;96791.09;5038586;28;20206;-77
2022/07/07 02:12:06;;;;;;;4.37;3.97;;;;;;;17.84;100.00;96796.31;5043167;28;20261;-77
2022/07/07 02:14:34;;;;;;;4.30;3.80;;;;;;;17.83;100.00;96791.09;5038541;28;20471;-77
2022/07/07 02:17:01;;;;;;;5.00;3.70;;;;;;;17.80;100.00;96789.72;5035292;28;20201;-77
2022/07/07 02:19:28;;;;;;;7.10;3.87;;;;;;;17.71;100.00;96789.41;5032525;28;20211;-77
2022/07/07 02:21:55;;;;;;;6.00;3.97;;;;;;;17.70;100.00;96795.13;5036696;28;20219;-77
2022/07/07 02:24:22;;;;;;;4.20;3.80;;;;;;;17.75;100.00;96790.53;5032150;28;20218;-77
2022/07/07 02:26:50;;;;;;;4.07;3.67;;;;;;;17.81;100.00;96801.47;5040031;28;20235;-77
2022/07/07 02:29:17;;;;;;;5.27;3.63;;;;;;;17.85;100.00;96797.97;5035000;28;20289;-77
2022/07/07 02:31:45;;;;;;;6.57;4.00;;;;;;;17.92;100.00;96801.25;5039918;28;20214;-77
2022/07/07 02:34:12;;;;;;;4.50;3.67;;;;;;;17.95;100.00;96806.19;5033616;28;20253;-77
2022/07/07 02:36:39;;;;;;;3.97;3.57;;;;;;;17.98;100.00;96805.66;5036334;28;20207;-77
2022/07/07 02:39:06;;;;;;;4.43;3.80;;;;;;;17.97;100.00;96798.53;5043444;28;20202;-77
2022/07/07 02:41:33;;;;;;;4.10;3.70;;;;;;;17.95;100.00;96797.97;5031082;28;20337;-77
2022/07/07 02:44:00;;;;;;;4.13;3.73;;;;;;;17.88;100.00;96791.94;5036898;28;20209;-77
2022/07/07 02:46:29;;;;;;;6.50;4.17;;;;;;;17.76;100.00;96797.63;5038403;28;20201;-77
2022/07/07 02:48:58;;;;;;;5.53;3.90;;;;;;;17.74;100.00;96796.25;5036971;28;20207;-77
2022/07/07 02:51:25;;;;;;;4.27;3.87;;;;;;;17.79;100.00;96790.81;5033852;28;20215;-77
2022/07/07 02:53:52;;;;;;;4.90;3.87;;;;;;;17.85;100.00;96797.97;5036783;28;20209;-77
2022/07/07 02:56:19;;;;;;;5.07;3.93;;;;;;;17.86;100.00;96791.41;5028816;28;20234;-77
2022/07/07 02:58:46;;;;;;;5.93;4.10;;;;;;;17.85;100.00;96789.75;5035163;28;20246;-77
2022/07/07 03:01:13;;;;;;;3.90;3.60;;;;;;;17.90;100.00;96797.16;5036142;28;20213;-76
2022/07/07 03:03:40;;;;;;;4.73;3.50;;;;;;;17.94;100.00;96790.91;5035450;28;20199;-76
2022/07/07 03:06:09;;;;;;;4.67;3.37;;;;;;;18.01;100.00;96799.66;5029747;28;20322;-77
2022/07/07 03:08:36;;;;;;;5.57;3.93;;;;;;;18.03;100.00;96796.69;5038397;28;20217;-77
2022/07/07 03:11:03;;;;;;;6.17;3.90;;;;;;;18.06;100.00;96794.22;5042537;28;20210;-77
2022/07/07 03:13:31;;;;;;;4.27;3.13;;;;;;;18.10;100.00;96803.53;5037346;28;20199;-77
2022/07/07 03:15:58;;;;;;;4.10;3.70;;;;;;;18.04;100.00;96788.19;5031659;28;20223;-77
2022/07/07 03:18:25;;;;;;;8.33;4.20;;;;;;;17.99;100.00;96799.09;5037674;28;20229;-77
2022/07/07 03:20:52;;;;;;;6.13;3.93;;;;;;;17.86;100.00;96796.88;5032235;28;20214;-76
2022/07/07 03:23:21;;;;;;;6.37;4.17;;;;;;;17.74;100.00;96798.97;5032453;28;20286;-77
2022/07/07 03:25:48;;;;;;;5.90;3.97;;;;;;;17.68;100.00;96797.31;5027762;28;20222;-77
2022/07/07 03:28:15;;;;;;;5.30;3.97;;;;;;;17.62;100.00;96787.44;5034811;28;20214;-77
2022/07/07 03:30:42;;;;;;;4.03;3.63;;;;;;;17.58;100.00;96791.75;5039990;28;20210;-77
2022/07/07 03:33:09;;;;;;;4.33;4.00;;;;;;;17.57;100.00;96788.19;5041911;28;20210;-76
2022/07/07 03:35:38;;;;;;;4.03;3.57;;;;;;;17.60;100.00;96792.31;5029631;28;20234;-77
2022/07/07 03:38:06;;;;;;;4.63;4.23;;;;;;;17.65;100.00;96792.38;5036530;28;20207;-77
2022/07/07 03:40:35;;;;;;;4.53;3.23;;;;;;;17.72;100.00;96791.03;5026434;28;20203;-77
2022/07/07 03:43:02;;;;;;;5.50;3.33;;;;;;;17.81;100.00;96796.00;5036293;28;20226;-77
2022/07/07 03:45:29;;;;;;;3.87;3.50;;;;;;;17.80;100.00;96797.91;5038190;28;20217;-77
2022/07/07 03:47:56;;;;;;;5.20;3.57;;;;;;;17.76;100.00;96794.91;5034922;28;20233;-77
2022/07/07 03:50:23;;;;;;;4.10;3.70;;;;;;;17.76;100.00;96797.63;5045230;28;20204;-77
2022/07/07 03:52:50;;;;;;;5.30;3.90;;;;;;;17.71;100.00;96794.03;5039902;28;20214;-77
2022/07/07 03:55:17;;;;;;;4.30;3.50;;;;;;;17.63;100.00;96800.00;5027923;28;20226;-77
2022/07/07 03:57:46;;;;;;;5.93;3.80;;;;;;;17.62;100.00;96787.44;5034260;28;20209;-76
2022/07/07 04:00:13;;;;;;;6.80;4.10;;;;;;;17.63;100.00;96795.34;5032549;28;20214;-77
2022/07/07 04:02:40;;;;;;;6.27;4.10;;;;;;;17.70;100.00;96793.22;5033403;28;20218;-76
2022/07/07 04:05:08;;;;;;;4.77;3.50;;;;;;;17.73;100.00;96794.59;5037636;28;20206;-76
2022/07/07 04:07:35;;;;;;;4.13;3.00;;;;;;;17.78;100.00;96792.72;5049616;28;20206;-76
2022/07/07 04:10:02;;;;;;;4.17;3.03;;;;;;;17.80;100.00;96799.81;5039174;28;20205;-77
2022/07/07 04:12:30;;;;;;;4.27;3.87;;;;;;;17.80;100.00;96802.56;5035811;28;20214;-77
2022/07/07 04:14:58;;;;;;;6.37;3.60;;;;;;;17.71;100.00;96797.59;5029670;28;20218;-77
2022/07/07 04:17:25;;;;;;;7.37;3.20;;;;;;;17.67;100.00;96803.84;5039926;28;20237;-77
2022/07/07 04:19:52;;;;;;;7.90;3.97;;;;;;;17.71;100.00;96794.03;5037012;28;20214;-76
2022/07/07 04:22:19;;;;;;;4.17;3.87;;;;;;;17.76;100.00;96796.81;5041240;28;20198;-77
2022/07/07 04:24:46;;;;;;;5.50;3.80;;;;;;;17.77;100.00;96799.28;5032498;28;20221;-77
2022/07/07 04:27:13;;;;;;;7.33;4.53;;;;;;;17.72;100.00;96796.50;5029684;28;20316;-77
2022/07/07 04:29:40;;;;;;;5.03;3.60;;;;;;;17.61;100.00;96799.41;5037444;28;20206;-77
2022/07/07 04:32:10;;;;;;;5.00;3.50;;;;;;;17.53;100.00;96795.25;5030643;28;20278;-77
2022/07/07 04:34:37;;;;;;;3.93;3.43;;;;;;;17.47;100.00;96787.31;5030507;28;20226;-77
2022/07/07 04:37:05;;;;;;;3.87;3.37;;;;;;;17.55;100.00;96792.28;5035769;28;20210;-77
2022/07/07 04:39:32;;;;;;;5.57;3.40;;;;;;;17.66;100.00;96799.47;5030908;28;20199;-77
2022/07/07 04:41:59;;;;;;;4.13;3.30;;;;;;;17.74;100.00;96797.06;5050443;28;20213;-77
2022/07/07 04:44:26;;;;;;;3.57;3.17;;;;;;;17.81;100.00;96790.53;5037588;28;20296;-77
2022/07/07 04:46:53;;;;;;;3.50;3.20;;;;;;;17.90;100.00;96797.16;5033924;28;20211;-77
2022/07/07 04:49:21;;;;;;;4.10;3.27;;;;;;;17.96;100.00;96796.06;5029580;28;20210;-77
2022/07/07 04:51:48;;;;;;;4.87;3.90;;;;;;;17.98;100.00;96799.38;5041257;28;20211;-77
2022/07/07 04:54:16;;;;;;;4.20;3.80;;;;;;;17.99;100.00;96801.84;5026903;28;20297;-77
2022/07/07 04:56:43;;;;;;;4.77;3.70;;;;;;;18.02;100.00;96805.97;5038990;28;20226;-77
2022/07/07 04:59:10;;;;;;;4.63;3.30;;;;;;;17.95;100.00;96808.91;5031200;28;20210;-77
2022/07/07 05:01:37;;;;;;;7.63;4.00;;;;;;;17.98;100.00;96802.09;5026301;28;20215;-77
2022/07/07 05:04:05;;;;;;;4.77;4.37;;;;;;;17.90;100.00;96797.97;5038171;28;20207;-77
2022/07/07 05:06:34;;;;;;;5.67;4.40;;;;;;;17.95;100.00;96805.38;5028762;28;20245;-77
2022/07/07 05:09:01;;;;;;;10.40;8.20;;;;;;;18.00;100.00;96811.69;5030520;28;20223;-77
2022/07/07 05:11:28;;;;;;;6.37;5.77;;;;;;;17.91;100.00;96805.09;5042611;28;20203;-77
2022/07/07 05:13:55;;;;;;;6.50;4.57;;;;;;;17.82;100.00;96801.22;5037080;28;20295;-77
2022/07/07 05:16:22;;;;;;;3.70;3.27;;;;;;;17.78;100.00;96805.53;5031989;28;20234;-77
2022/07/07 05:18:49;;;;;;;3.63;3.30;;;;;;;17.75;100.00;96789.69;5028651;28;20198;-77
2022/07/07 05:21:16;;;;;;;4.47;2.90;;;;;;;17.66;100.00;96792.13;5030427;28;20210;-77
2022/07/07 05:23:45;;;;;;;5.23;3.00;;;;;;;17.55;100.00;96790.38;5033389;28;20207;-77
2022/07/07 05:26:12;;;;;;;3.47;3.17;;;;;;;17.58;100.00;96795.31;5030099;28;20222;-77
2022/07/07 05:28:41;;;;;;;4.70;3.13;;;;;;;17.57;100.00;96787.38;5036191;28;20203;-77
2022/07/07 05:31:10;;;;;;;3.70;3.20;;;;;;;17.54;100.00;96779.69;5037754;28;20202;-77
2022/07/07 05:33:37;;;;;;;4.23;3.20;;;;;;;17.54;100.00;96782.44;5041739;28;20297;-77
2022/07/07 05:36:05;;;;;;;3.43;3.10;;;;;;;17.49;100.00;96771.50;5063173;28;20221;-76
2022/07/07 05:38:32;;;;;;;5.33;3.13;;;;;;;17.54;100.00;96766.88;5034814;28;20207;-77
2022/07/07 05:41:01;;;;;;;3.63;3.17;;;;;;;17.46;100.00;96755.63;5031738;28;20263;-77
2022/07/07 05:43:28;;;;;;;6.37;3.60;;;;;;;17.46;100.00;96750.16;5036796;28;20215;-77
2022/07/07 05:45:55;;;;;;;9.30;4.07;;;;;;;17.42;100.00;96754.53;5030123;28;20202;-77
2022/07/07 05:48:22;;;;;;;5.33;3.50;;;;;;;17.25;100.00;96751.97;5031961;28;20215;-76
2022/07/07 05:50:49;;;;;;;3.27;2.80;;;;;;;17.19;100.00;96759.28;5031871;28;20225;-76
2022/07/07 05:53:17;;;;;;;4.03;3.53;;;;;;;17.00;100.00;96758.06;5033723;28;20257;-76
2022/07/07 05:55:44;;;;;;;4.07;3.63;;;;;;;16.98;100.00;96758.31;5030201;28;20230;-76
2022/07/07 05:58:13;;;;;;;4.93;3.80;;;;;;;16.97;100.00;96764.03;5035386;28;20207;-76
2022/07/07 06:00:40;;;;;;;5.73;3.83;;;;;;;17.00;100.00;96763.50;5047112;28;20207;-77
2022/07/07 06:03:07;;;;;;;3.73;3.33;;;;;;;16.97;100.00;96753.09;5036214;28;20213;-76
2022/07/07 06:05:34;;;;;;;4.30;3.20;;;;;;;16.87;100.00;96767.50;5035054;28;20225;-76
2022/07/07 06:08:01;;;;;;;9.13;3.40;;;;;;;16.73;100.00;96760.81;5034930;28;20210;-76
2022/07/07 06:10:28;;;;;;;3.60;3.30;;;;;;;16.67;100.00;96772.78;5042168;28;20203;-76
2022/07/07 06:12:56;;;;;;;3.83;3.30;;;;;;;16.59;100.00;96763.09;5038156;28;20214;-76
2022/07/07 06:15:24;;;;;;;3.23;2.93;;;;;;;16.62;100.00;96764.53;5034846;28;20297;-76
2022/07/07 06:17:51;;;;;;;6.53;3.50;;;;;;;16.59;100.00;96765.81;5037533;28;20214;-76
2022/07/07 06:20:18;;;;;;;4.10;3.20;;;;;;;16.60;100.00;96762.03;5039228;28;20204;-76
2022/07/07 06:22:45;;;;;;;3.30;3.00;;;;;;;16.58;100.00;96763.38;5041996;28;20217;-76
2022/07/07 06:25:12;;;;;;;4.83;3.93;;;;;;;16.68;100.00;96762.66;5031632;28;20213;-77
2022/07/07 06:27:40;;;;;;;4.93;3.67;;;;;;;16.80;100.00;96760.59;5030963;28;20245;-76
2022/07/07 06:30:08;;;;;;;4.83;3.50;;;;;;;16.85;100.00;96757.91;5036222;28;20194;-76
2022/07/07 06:32:36;;;;;;;7.37;3.33;;;;;;;16.78;100.00;96757.31;5040420;28;20297;-76
2022/07/07 06:35:04;;;;;;;3.60;3.30;;;;;;;16.73;100.00;96765.44;5033052;28;20191;-76
2022/07/07 06:37:31;;;;;;;4.90;3.10;;;;;;;16.73;100.00;96771.72;5042627;28;20210;-76
2022/07/07 06:39:58;;;;;;;4.03;3.40;;;;;;;16.75;100.00;96771.47;5029486;28;20222;-76
2022/07/07 06:42:25;;;;;;;3.90;3.50;;;;;;;16.69;100.00;96770.59;5033172;28;20214;-76
2022/07/07 06:45:02;;;;;;;5.37;3.50;;;;;;;16.78;100.00;96782.69;5035364;28;20211;-76
2022/07/07 06:47:29;;;;;;;4.37;3.73;;;;;;;16.84;100.00;96778.91;5038396;28;20195;-76
2022/07/07 06:49:57;;;;;;;7.20;4.17;;;;;;;16.92;100.00;96788.53;5028740;28;20202;-76
2022/07/07 06:52:25;;;;;;;5.30;4.80;;;;;;;16.91;100.00;96779.53;5039815;28;20302;-76
2022/07/07 06:54:52;;;;;;;6.07;4.67;;;;;;;16.94;100.00;96772.72;5032548;28;20203;-76
2022/07/07 06:57:19;;;;;;;4.77;4.13;;;;;;;17.07;100.00;96777.75;5030236;28;20252;-76
2022/07/07 06:59:45;;;;;;;4.53;4.13;;;;;;;17.06;100.00;96778.00;5027826;28;20210;-76
2022/07/07 07:02:13;;;;;;;5.57;3.50;;;;;;;17.12;100.00;96785.97;5039055;28;20206;-76
2022/07/07 07:04:40;;;;;;;11.50;5.20;;;;;;;17.08;100.00;96784.03;5027420;28;20191;-76
2022/07/07 07:07:08;;;;;;;5.17;4.00;;;;;;;17.14;100.00;96786.53;5030205;28;20206;-76
2022/07/07 07:09:35;;;;;;;5.93;3.70;;;;;;;17.17;100.00;96787.94;5031710;28;20217;-76
2022/07/07 07:12:02;;;;;;;6.00;3.53;;;;;;;17.31;100.00;96798.13;5039918;28;20206;-76
2022/07/07 07:14:29;;;;;;;5.50;3.30;;;;;;;17.44;100.00;96798.78;5036737;28;20276;-76
2022/07/07 07:16:56;;;;;;;4.47;3.30;;;;;;;17.49;100.00;96793.34;5034576;28;20218;-76
2022/07/07 07:19:23;;;;;;;5.87;3.20;;;;;;;17.60;100.00;96792.31;5030295;28;20197;-76
2022/07/07 07:21:50;;;;;;;6.87;3.37;;;;;;;18.12;100.00;96787.66;5038692;28;20252;-76
2022/07/07 07:24:18;;;;;;;6.57;3.07;;;;;;;18.54;100.00;96793.00;5039751;28;20195;-77
2022/07/07 07:26:45;;;;;;;3.93;3.37;;;;;;;18.89;100.00;96781.31;5031196;28;20238;-78
2022/07/07 07:29:12;;;;;;;3.60;2.90;;;;;;;19.39;97.90;96782.44;5040899;28;20197;-77
2022/07/07 07:31:39;;;;;;;6.20;3.00;;;;;;;19.90;99.89;96779.63;5036494;28;20203;-78
2022/07/07 07:34:07;;;;;;;3.97;3.08;;;;;;;19.92;91.91;96785.63;5035553;28;20237;-78
2022/07/07 07:36:34;;;;;;;3.63;2.88;;;;;;;20.22;89.98;96780.03;5035452;28;20241;-77
2022/07/07 07:39:01;;;;;;;3.83;2.95;;;;;;;20.62;88.35;96776.28;5032094;28;20230;-78
2022/07/07 07:41:29;;;;;;;4.22;2.85;;;;;;;21.04;86.90;96775.72;5036227;28;20199;-78
2022/07/07 07:43:57;;;;;;;6.15;3.17;;;;;;;20.93;84.79;96768.66;5031088;28;20203;-77
2022/07/07 07:46:24;;;;;;;7.75;3.22;;;;;;;21.20;84.33;96775.63;5045549;28;20289;-77
2022/07/07 07:48:51;;;;;;;6.75;3.25;;;;;;;21.37;80.31;96784.25;5044259;28;20279;-77
2022/07/07 07:51:18;;;;;;;4.75;2.88;;;;;;;21.59;78.48;96784.63;5034585;28;20206;-77
2022/07/07 07:53:45;;;;;;;5.63;2.97;;;;;;;21.65;76.10;96779.88;5034359;28;20205;-77
2022/07/07 07:56:12;;;;;;;3.97;3.00;;;;;;;21.63;74.71;96784.84;5045740;28;20221;-77
2022/07/07 07:58:41;;;;;;;4.50;2.90;;;;;;;21.64;75.52;96791.97;5029334;28;20241;-78
2022/07/07 08:01:08;;;;;;;4.45;2.90;;;;;;;21.60;73.97;96785.44;5036755;28;20320;-77
2022/07/07 08:03:35;;;;;;;3.90;2.72;;;;;;;21.68;75.37;96774.63;5034359;28;20210;-77
2022/07/07 08:06:02;;;;;;;6.82;3.13;;;;;;;21.85;74.47;96780.50;5034429;28;20238;-77
2022/07/07 08:08:29;;;;;;;6.15;2.80;;;;;;;21.82;76.18;96774.75;5037623;28;20217;-77
2022/07/07 08:10:56;;;;;;;3.55;2.53;;;;;;;22.05;76.39;96767.63;5035148;28;20202;-77
2022/07/07 08:13:24;;;;;;;4.57;2.80;;;;;;;22.11;73.63;96775.56;5031608;28;20220;-77
2022/07/07 08:15:53;;;;;;;7.75;3.17;;;;;;;22.25;73.37;96781.16;5042629;28;20218;-78
2022/07/07 08:18:20;;;;;;;3.45;2.50;;;;;;;22.26;72.27;96772.59;5033873;28;20233;-77
2022/07/07 08:20:47;;;;;;;8.20;2.65;;;;;;;22.21;71.86;96771.84;5039043;28;20210;-77
2022/07/07 08:23:14;;;;;;;3.10;2.80;;;;;;;22.39;73.52;96773.81;5029286;28;20295;-78
2022/07/07 08:25:41;;;;;;;5.82;2.88;;;;;;;22.42;71.66;96761.41;5033938;28;20216;-78
2022/07/07 08:28:08;;;;;;;4.60;2.83;;;;;;;22.48;70.97;96769.28;5052103;28;20203;-77
2022/07/07 08:30:37;;;;;;;3.13;2.63;;;;;;;22.40;70.75;96767.19;5035840;28;20249;-78
2022/07/07 08:33:06;;;;;;;10.80;3.08;;;;;;;22.40;73.77;96758.94;5036754;28;20349;-78
2022/07/07 08:35:34;;;;;;;2.70;2.50;;;;;;;22.55;71.30;96760.66;5037527;28;20234;-78
2022/07/07 08:38:01;;;;;;;3.55;2.80;;;;;;;22.66;72.02;96759.41;5033279;28;20490;-78
2022/07/07 08:40:29;;;;;;;3.00;2.67;;;;;;;22.80;70.41;96767.75;5031593;28;20211;-78
2022/07/07 08:42:56;;;;;;;4.25;2.97;;;;;;;22.74;70.47;96760.66;5033846;28;20266;-78
2022/07/07 08:45:23;;;;;;;4.88;3.00;;;;;;;22.91;69.58;96755.47;5046045;28;20233;-77
2022/07/07 08:47:50;;;;;;;3.17;2.85;;;;;;;23.07;71.42;96756.06;5038293;28;20278;-77
2022/07/07 08:50:19;;;;;;;4.05;2.78;;;;;;;23.06;69.37;96748.91;5037436;28;20207;-77
2022/07/07 08:52:50;;;;;;;4.00;2.67;;;;;;;23.14;68.72;96751.78;5046160;28;20242;-77
2022/07/07 08:55:21;;;;;;;3.78;2.88;;;;;;;23.20;66.56;96753.38;5034482;28;20237;-77
2022/07/07 08:57:50;;;;;;;3.33;3.03;;;;;;;23.26;65.78;96746.63;5032166;28;20226;-77
2022/07/07 09:00:18;;;;;;;4.70;2.85;;;;;;;23.39;66.49;96759.63;5036034;28;20221;-77
2022/07/07 09:02:46;;;;;;;3.65;2.90;;;;;;;23.43;66.59;96757.09;5045073;28;20232;-76
2022/07/07 09:05:13;;;;;;;4.30;3.15;;;;;;;23.35;65.35;96742.06;5042739;28;20197;-77
2022/07/07 09:07:47;;;;;;;4.22;3.13;;;;;;;23.28;67.79;96747.16;5040051;28;20206;-77
2022/07/07 09:10:28;;;;;;;3.72;3.20;;;;;;;23.08;66.94;96744.75;5033582;28;20302;-77
2022/07/07 09:12:56;;;;;;;4.05;2.92;;;;;;;23.06;66.73;96755.22;5033117;28;20220;-77
2022/07/07 09:15:23;;;;;;;7.40;3.28;;;;;;;23.08;67.83;96753.00;5037294;28;20207;-77
2022/07/07 09:17:50;;;;;;;3.60;2.72;;;;;;;22.92;67.12;96757.94;5043772;28;20232;-77
2022/07/07 09:20:18;;;;;;;3.72;2.88;;;;;;;22.83;68.07;96750.66;5033374;28;20221;-77
2022/07/07 09:22:49;;;;;;;4.63;3.22;;;;;;;22.95;67.96;96759.28;5040588;28;20210;-78
2022/07/07 09:25:18;;;;;;;5.05;2.90;;;;;;;22.87;67.33;96758.03;5026358;28;20242;-78
2022/07/07 09:27:56;;;;;;;4.00;3.00;;;;;;;22.85;68.47;96753.94;5050742;28;20329;-78
2022/07/07 09:30:28;;;;;;;6.22;3.17;;;;;;;23.22;67.51;96747.56;5032395;28;20203;-78
2022/07/07 09:32:56;;;;;;;3.33;3.03;;;;;;;23.17;67.52;96751.19;5035829;28;20282;-78
2022/07/07 09:38:14;;;;;;;3.45;3.00;;;;;;;23.40;65.59;96754.94;5039727;28;20234;-78
2022/07/07 09:40:51;;;;;;;4.32;3.30;;;;;;;23.28;63.85;96752.69;5038185;28;20218;-78
2022/07/07 09:43:18;;;;;;;4.57;3.45;;;;;;;23.13;65.04;96761.19;5034931;28;20278;-78
2022/07/07 09:45:47;;;;;;;3.72;3.33;;;;;;;23.09;65.50;96749.13;5038873;28;20209;-78
2022/07/07 09:48:14;;;;;;;3.30;3.00;;;;;;;22.95;65.55;96764.78;5042464;28;20302;-78
2022/07/07 09:50:41;;;;;;;6.85;3.55;;;;;;;22.95;64.97;96753.78;5050296;28;20200;-77
2022/07/07 09:53:10;;;;;;;4.63;3.30;;;;;;;22.79;65.21;96761.47;5034713;28;20216;-79
2022/07/07 09:55:37;;;;;;;5.05;3.20;;;;;;;22.74;65.52;96755.16;5038062;28;20221;-79
2022/07/07 09:58:04;;;;;;;5.88;3.33;;;;;;;22.74;64.87;96764.28;5028903;28;20230;-80
2022/07/07 10:00:31;;;;;;;5.28;3.30;;;;;;;22.63;66.06;96763.56;5026471;28;20286;-79
2022/07/07 10:03:00;;;;;;;5.05;3.10;;;;;;;22.57;66.01;96747.41;5039091;28;20209;-79
2022/07/07 10:05:29;;;;;;;3.90;2.90;;;;;;;22.71;66.51;96755.78;5030453;28;20203;-80
2022/07/07 10:07:58;;;;;;;8.57;3.50;;;;;;;22.67;65.42;96771.22;5028767;28;20198;-79
2022/07/07 10:10:27;;;;;;;4.95;3.17;;;;;;;22.40;65.84;96753.44;5033879;28;20206;-80
2022/07/07 10:12:56;;;;;;;3.47;3.00;;;;;;;22.40;65.06;96761.69;5032656;28;20210;-80
2022/07/07 10:15:25;;;;;;;3.75;3.05;;;;;;;22.78;67.02;96759.81;5035632;28;20211;-77
2022/07/07 10:17:54;;;;;;;3.50;2.63;;;;;;;23.02;64.48;96770.72;5042355;28;20316;-79
2022/07/07 10:20:21;;;;;;;4.80;2.90;;;;;;;23.11;63.48;96757.09;5041437;28;20214;-77
2022/07/07 10:22:48;;;;;;;3.83;2.67;;;;;;;23.21;63.79;96751.44;5036501;28;20213;-78
2022/07/07 10:25:16;;;;;;;3.85;2.88;;;;;;;23.31;62.94;96754.81;5041342;28;20257;-78
2022/07/07 10:27:53;;;;;;;3.70;2.65;;;;;;;23.46;62.28;96759.25;5039026;28;20237;-78
2022/07/07 10:30:30;;;;;;;4.72;2.92;;;;;;;23.55;61.90;96753.91;5037216;28;20264;-78
2022/07/07 10:32:58;;;;;;;10.38;2.45;;;;;;;23.59;60.56;96757.66;5036658;28;20234;-78
2022/07/07 10:35:27;;;;;;;2.55;2.35;;;;;;;23.55;60.90;96756.66;5035584;28;20207;-77
2022/07/07 10:37:57;;;;;;;3.05;2.55;;;;;;;23.31;61.96;96754.81;5030202;28;20230;-76
2022/07/07 10:40:26;;;;;;;4.32;3.00;;;;;;;23.34;62.20;96756.97;5034476;28;20297;-76
2022/07/07 10:43:16;;;;;;;4.45;2.92;;;;;;;23.46;61.71;96752.94;5034387;28;20235;-76
2022/07/07 10:45:46;;;;;;;2.75;2.55;;;;;;;23.47;59.95;96766.41;5045962;28;20276;-77
2022/07/07 10:48:44;;;;;;;5.90;2.50;;;;;;;23.48;61.06;96772.75;5041249;28;20207;-76
2022/07/07 10:51:19;;;;;;;4.78;2.75;;;;;;;23.43;61.88;96775.56;5035126;28;20206;-77
2022/07/07 10:54:06;;;;;;;2.63;2.30;;;;;;;23.15;59.25;96780.16;5030621;28;20264;-76
2022/07/07 10:57:06;;;;;;;3.70;2.40;;;;;;;23.08;61.08;96797.06;5036132;28;20321;-76
2022/07/07 11:00:07;;;;;;;8.27;2.50;;;;;;;23.01;60.49;96785.63;5031441;28;20214;-76
2022/07/07 11:02:35;;;;;;;3.22;2.65;;;;;;;22.96;61.65;96792.03;5032535;28;20206;-76
2022/07/07 11:05:04;;;;;;;8.07;2.65;;;;;;;23.05;62.05;96796.88;5035865;28;20213;-77
2022/07/07 11:07:32;;;;;;;3.88;2.50;;;;;;;23.07;61.73;96795.44;5032264;28;20211;-76
2022/07/07 11:10:00;;;;;;;7.20;2.60;;;;;;;22.98;61.45;96792.53;5036296;28;20203;-76
2022/07/07 11:12:38;;;;;;;3.25;2.83;;;;;;;22.99;62.52;96787.84;5037201;28;20286;-77
2022/07/07 11:15:37;;;;;;;5.75;3.08;;;;;;;22.95;63.74;96792.34;5041973;28;20234;-76
2022/07/07 11:18:16;;;;;;;4.25;2.85;;;;;;;22.92;63.96;96795.66;4991645;28;20230;-77
2022/07/07 11:20:55;;;;;;;4.32;2.67;;;;;;;22.87;63.78;96795.75;5038615;28;20208;-76
2022/07/07 11:23:23;;;;;;;3.38;2.75;;;;;;;22.75;64.08;96796.19;5030059;28;20205;-77
2022/07/07 11:25:56;;;;;;;4.97;2.90;;;;;;;22.73;65.34;96801.13;5031741;28;20206;-77
2022/07/07 11:28:25;;;;;;;3.63;2.92;;;;;;;22.76;66.08;96805.28;5033419;28;20207;-76
2022/07/07 11:31:03;;;;;;;3.95;3.00;;;;;;;22.69;67.23;96808.38;5036604;28;20207;-76
2022/07/07 11:33:31;;;;;;;6.78;2.92;;;;;;;22.65;67.15;96813.63;5032168;28;20226;-77
2022/07/07 11:35:58;;;;;;;2.85;2.65;;;;;;;22.55;66.37;96811.00;5038549;28;20274;-76
2022/07/07 11:38:30;;;;;;;2.90;2.60;;;;;;;22.52;64.73;96819.06;5041443;28;20317;-76